sensor_id;sensor_type;location;lat;lon;timestamp;temperature;humidity
31391;DHT22;18022;45.492;11.548;2024-03-06T00:01:44;11.20;99.90
31391;DHT22;18022;45.492;11.548;2024-03-06T00:04:09;11.30;99.90
31391;DHT22;18022;45.492;11.548;2024-03-06T00:06:35;11.30;99.90
31391;DHT22;18022;45.492;11.548;2024-03-06T00:09:02;11.30;99.90
31391;DHT22;18022;45.492;11.548;2024-03-06T00:11:28;11.10;99.90
31391;DHT22;18022;45.492;11.548;2024-03-06T00:13:54;11.00;99.90
31391;DHT22;18022;45.492;11.548;2024-03-06T00:16:20;11.10;99.90
31391;DHT22;18022;45.492;11.548;2024-03-06T00:18:46;11.10;99.90
31391;DHT22;18022;45.492;11.548;2024-03-06T00:21:12;11.30;99.90
31391;DHT22;18022;45.492;11.548;2024-03-06T00:23:38;11.30;99.90
31391;DHT22;18022;45.492;11.548;2024-03-06T00:26:04;11.30;99.90
31391;DHT22;18022;45.492;11.548;2024-03-06T00:28:30;11.40;99.90
31391;DHT22;18022;45.492;11.548;2024-03-06T00:30:56;11.50;99.90
31391;DHT22;18022;45.492;11.548;2024-03-06T00:33:23;11.40;99.90
31391;DHT22;18022;45.492;11.548;2024-03-06T00:35:48;11.50;99.90
31391;DHT22;18022;45.492;11.548;2024-03-06T00:38:15;11.60;99.90
31391;DHT22;18022;45.492;11.548;2024-03-06T00:40:40;11.80;99.90
31391;DHT22;18022;45.492;11.548;2024-03-06T00:43:06;11.80;99.90
31391;DHT22;18022;45.492;11.548;2024-03-06T00:45:32;11.80;99.90
31391;DHT22;18022;45.492;11.548;2024-03-06T00:47:58;11.80;99.90
31391;DHT22;18022;45.492;11.548;2024-03-06T00:50:24;11.80;99.90
31391;DHT22;18022;45.492;11.548;2024-03-06T00:52:49;11.80;99.90
31391;DHT22;18022;45.492;11.548;2024-03-06T00:55:15;11.70;99.90
31391;DHT22;18022;45.492;11.548;2024-03-06T00:57:41;11.60;99.90
31391;DHT22;18022;45.492;11.548;2024-03-06T01:00:07;11.70;99.90
31391;DHT22;18022;45.492;11.548;2024-03-06T01:02:39;11.80;99.90
31391;DHT22;18022;45.492;11.548;2024-03-06T01:05:06;11.80;99.90
31391;DHT22;18022;45.492;11.548;2024-03-06T01:07:38;11.80;99.90
31391;DHT22;18022;45.492;11.548;2024-03-06T01:10:05;11.70;99.90
31391;DHT22;18022;45.492;11.548;2024-03-06T01:12:34;11.60;99.90
31391;DHT22;18022;45.492;11.548;2024-03-06T01:15:00;11.60;99.90
31391;DHT22;18022;45.492;11.548;2024-03-06T01:17:25;11.70;99.90
31391;DHT22;18022;45.492;11.548;2024-03-06T01:19:51;11.70;99.90
31391;DHT22;18022;45.492;11.548;2024-03-06T01:22:17;11.80;99.90
31391;DHT22;18022;45.492;11.548;2024-03-06T01:24:43;11.80;99.90
31391;DHT22;18022;45.492;11.548;2024-03-06T01:27:09;11.80;99.90
31391;DHT22;18022;45.492;11.548;2024-03-06T01:29:35;11.70;99.90
31391;DHT22;18022;45.492;11.548;2024-03-06T01:32:01;11.60;99.90
31391;DHT22;18022;45.492;11.548;2024-03-06T01:34:27;11.60;99.90
31391;DHT22;18022;45.492;11.548;2024-03-06T01:36:53;11.50;99.90
31391;DHT22;18022;45.492;11.548;2024-03-06T01:39:19;11.40;99.90
31391;DHT22;18022;45.492;11.548;2024-03-06T01:41:50;11.30;99.90
31391;DHT22;18022;45.492;11.548;2024-03-06T01:44:17;11.30;99.90
31391;DHT22;18022;45.492;11.548;2024-03-06T01:46:43;11.30;99.90
31391;DHT22;18022;45.492;11.548;2024-03-06T01:49:12;11.30;99.90
31391;DHT22;18022;45.492;11.548;2024-03-06T01:51:40;11.30;99.90
31391;DHT22;18022;45.492;11.548;2024-03-06T01:54:06;11.20;99.90
31391;DHT22;18022;45.492;11.548;2024-03-06T01:56:38;11.20;99.90
31391;DHT22;18022;45.492;11.548;2024-03-06T01:59:07;11.10;99.90
31391;DHT22;18022;45.492;11.548;2024-03-06T02:01:33;11.20;99.90
31391;DHT22;18022;45.492;11.548;2024-03-06T02:03:59;11.20;99.90
31391;DHT22;18022;45.492;11.548;2024-03-06T02:06:25;11.10;99.90
31391;DHT22;18022;45.492;11.548;2024-03-06T02:08:51;11.20;99.90
31391;DHT22;18022;45.492;11.548;2024-03-06T02:11:17;11.20;99.90
31391;DHT22;18022;45.492;11.548;2024-03-06T02:13:43;11.20;99.90
31391;DHT22;18022;45.492;11.548;2024-03-06T02:16:12;11.20;99.90
31391;DHT22;18022;45.492;11.548;2024-03-06T02:18:37;11.20;99.90
31391;DHT22;18022;45.492;11.548;2024-03-06T02:21:16;11.20;99.90
31391;DHT22;18022;45.492;11.548;2024-03-06T02:23:42;11.10;99.90
31391;DHT22;18022;45.492;11.548;2024-03-06T02:26:07;10.80;99.90
31391;DHT22;18022;45.492;11.548;2024-03-06T02:28:33;10.60;99.90
31391;DHT22;18022;45.492;11.548;2024-03-06T02:31:00;10.40;99.90
31391;DHT22;18022;45.492;11.548;2024-03-06T02:33:26;10.60;99.90
31391;DHT22;18022;45.492;11.548;2024-03-06T02:35:51;10.90;99.90
31391;DHT22;18022;45.492;11.548;2024-03-06T02:38:17;11.00;99.90
31391;DHT22;18022;45.492;11.548;2024-03-06T02:40:43;11.10;99.90
31391;DHT22;18022;45.492;11.548;2024-03-06T02:43:10;11.20;99.90
31391;DHT22;18022;45.492;11.548;2024-03-06T02:45:36;11.20;99.90
31391;DHT22;18022;45.492;11.548;2024-03-06T02:48:01;11.20;99.90
31391;DHT22;18022;45.492;11.548;2024-03-06T02:50:27;11.10;99.90
31391;DHT22;18022;45.492;11.548;2024-03-06T02:52:53;11.00;99.90
31391;DHT22;18022;45.492;11.548;2024-03-06T02:55:19;11.10;99.90
31391;DHT22;18022;45.492;11.548;2024-03-06T02:57:44;11.20;99.90
31391;DHT22;18022;45.492;11.548;2024-03-06T03:00:11;11.10;99.90
31391;DHT22;18022;45.492;11.548;2024-03-06T03:02:41;11.00;99.90
31391;DHT22;18022;45.492;11.548;2024-03-06T03:05:08;11.00;99.90
31391;DHT22;18022;45.492;11.548;2024-03-06T03:07:33;11.00;99.90
31391;DHT22;18022;45.492;11.548;2024-03-06T03:09:59;10.90;99.90
31391;DHT22;18022;45.492;11.548;2024-03-06T03:12:25;11.00;99.90
31391;DHT22;18022;45.492;11.548;2024-03-06T03:14:51;10.90;99.90
31391;DHT22;18022;45.492;11.548;2024-03-06T03:17:18;10.40;99.90
31391;DHT22;18022;45.492;11.548;2024-03-06T03:19:45;10.20;99.90
31391;DHT22;18022;45.492;11.548;2024-03-06T03:22:11;10.40;99.90
31391;DHT22;18022;45.492;11.548;2024-03-06T03:24:36;10.60;99.90
31391;DHT22;18022;45.492;11.548;2024-03-06T03:27:05;10.80;99.90
31391;DHT22;18022;45.492;11.548;2024-03-06T03:29:31;10.90;99.90
31391;DHT22;18022;45.492;11.548;2024-03-06T03:31:58;10.90;99.90
31391;DHT22;18022;45.492;11.548;2024-03-06T03:34:23;11.00;99.90
31391;DHT22;18022;45.492;11.548;2024-03-06T03:36:49;11.00;99.90
31391;DHT22;18022;45.492;11.548;2024-03-06T03:39:15;11.00;99.90
31391;DHT22;18022;45.492;11.548;2024-03-06T03:41:45;11.00;99.90
31391;DHT22;18022;45.492;11.548;2024-03-06T03:44:15;11.00;99.90
31391;DHT22;18022;45.492;11.548;2024-03-06T03:46:41;11.10;99.90
31391;DHT22;18022;45.492;11.548;2024-03-06T03:49:07;11.00;99.90
31391;DHT22;18022;45.492;11.548;2024-03-06T03:51:39;11.00;99.90
31391;DHT22;18022;45.492;11.548;2024-03-06T03:54:05;11.00;99.90
31391;DHT22;18022;45.492;11.548;2024-03-06T03:56:31;11.00;99.90
31391;DHT22;18022;45.492;11.548;2024-03-06T03:58:58;11.20;99.90
31391;DHT22;18022;45.492;11.548;2024-03-06T04:01:26;11.20;99.90
31391;DHT22;18022;45.492;11.548;2024-03-06T04:03:52;11.20;99.90
31391;DHT22;18022;45.492;11.548;2024-03-06T04:06:17;11.10;99.90
31391;DHT22;18022;45.492;11.548;2024-03-06T04:08:44;11.10;99.90
31391;DHT22;18022;45.492;11.548;2024-03-06T04:11:09;11.10;99.90
31391;DHT22;18022;45.492;11.548;2024-03-06T04:13:38;11.10;99.90
31391;DHT22;18022;45.492;11.548;2024-03-06T04:16:05;11.10;99.90
31391;DHT22;18022;45.492;11.548;2024-03-06T04:18:32;11.10;99.90
31391;DHT22;18022;45.492;11.548;2024-03-06T04:21:05;11.10;99.90
31391;DHT22;18022;45.492;11.548;2024-03-06T04:23:32;11.10;99.90
31391;DHT22;18022;45.492;11.548;2024-03-06T04:25:59;11.20;99.90
31391;DHT22;18022;45.492;11.548;2024-03-06T04:28:24;11.40;99.90
31391;DHT22;18022;45.492;11.548;2024-03-06T04:30:50;11.40;99.90
31391;DHT22;18022;45.492;11.548;2024-03-06T04:33:16;11.30;99.90
31391;DHT22;18022;45.492;11.548;2024-03-06T04:35:41;11.30;99.90
31391;DHT22;18022;45.492;11.548;2024-03-06T04:38:07;11.30;99.90
31391;DHT22;18022;45.492;11.548;2024-03-06T04:40:33;11.20;99.90
31391;DHT22;18022;45.492;11.548;2024-03-06T04:43:02;11.20;99.90
31391;DHT22;18022;45.492;11.548;2024-03-06T04:45:28;11.10;99.90
31391;DHT22;18022;45.492;11.548;2024-03-06T04:47:54;11.10;99.90
31391;DHT22;18022;45.492;11.548;2024-03-06T04:50:20;11.10;99.90
31391;DHT22;18022;45.492;11.548;2024-03-06T04:52:46;11.10;99.90
31391;DHT22;18022;45.492;11.548;2024-03-06T04:55:12;11.10;99.90
31391;DHT22;18022;45.492;11.548;2024-03-06T04:57:43;11.10;99.90
31391;DHT22;18022;45.492;11.548;2024-03-06T05:00:10;11.10;99.90
31391;DHT22;18022;45.492;11.548;2024-03-06T05:02:36;11.20;99.90
31391;DHT22;18022;45.492;11.548;2024-03-06T05:05:05;11.20;99.90
31391;DHT22;18022;45.492;11.548;2024-03-06T05:07:31;11.10;99.90
31391;DHT22;18022;45.492;11.548;2024-03-06T05:09:58;10.90;99.90
31391;DHT22;18022;45.492;11.548;2024-03-06T05:12:27;11.00;99.90
31391;DHT22;18022;45.492;11.548;2024-03-06T05:14:53;11.10;99.90
31391;DHT22;18022;45.492;11.548;2024-03-06T05:17:19;11.10;99.90
31391;DHT22;18022;45.492;11.548;2024-03-06T05:19:46;11.10;99.90
31391;DHT22;18022;45.492;11.548;2024-03-06T05:22:13;11.10;99.90
31391;DHT22;18022;45.492;11.548;2024-03-06T05:24:39;11.20;99.90
31391;DHT22;18022;45.492;11.548;2024-03-06T05:27:05;11.30;99.90
31391;DHT22;18022;45.492;11.548;2024-03-06T05:29:31;11.20;99.90
31391;DHT22;18022;45.492;11.548;2024-03-06T05:31:57;11.10;99.90
31391;DHT22;18022;45.492;11.548;2024-03-06T05:34:23;11.00;99.90
31391;DHT22;18022;45.492;11.548;2024-03-06T05:36:49;11.10;99.90
31391;DHT22;18022;45.492;11.548;2024-03-06T05:39:15;11.10;99.90
31391;DHT22;18022;45.492;11.548;2024-03-06T05:41:41;11.10;99.90
31391;DHT22;18022;45.492;11.548;2024-03-06T05:44:07;11.10;99.90
31391;DHT22;18022;45.492;11.548;2024-03-06T05:46:33;11.20;99.90
31391;DHT22;18022;45.492;11.548;2024-03-06T05:48:59;11.20;99.90
31391;DHT22;18022;45.492;11.548;2024-03-06T05:51:26;11.10;99.90
31391;DHT22;18022;45.492;11.548;2024-03-06T05:53:52;11.10;99.90
31391;DHT22;18022;45.492;11.548;2024-03-06T05:56:18;11.10;99.90
31391;DHT22;18022;45.492;11.548;2024-03-06T05:58:44;11.10;99.90
31391;DHT22;18022;45.492;11.548;2024-03-06T06:01:15;11.10;99.90
31391;DHT22;18022;45.492;11.548;2024-03-06T06:03:44;11.10;99.90
31391;DHT22;18022;45.492;11.548;2024-03-06T06:06:10;11.10;99.90
31391;DHT22;18022;45.492;11.548;2024-03-06T06:08:35;11.10;99.90
31391;DHT22;18022;45.492;11.548;2024-03-06T06:11:04;11.20;99.90
31391;DHT22;18022;45.492;11.548;2024-03-06T06:13:29;11.20;99.90
31391;DHT22;18022;45.492;11.548;2024-03-06T06:15:58;11.20;99.90
31391;DHT22;18022;45.492;11.548;2024-03-06T06:18:23;11.20;99.90
31391;DHT22;18022;45.492;11.548;2024-03-06T06:20:49;11.20;99.90
31391;DHT22;18022;45.492;11.548;2024-03-06T06:23:15;11.20;99.90
31391;DHT22;18022;45.492;11.548;2024-03-06T06:25:41;11.10;99.90
31391;DHT22;18022;45.492;11.548;2024-03-06T06:28:06;11.20;99.90
31391;DHT22;18022;45.492;11.548;2024-03-06T06:30:32;11.10;99.90
31391;DHT22;18022;45.492;11.548;2024-03-06T06:32:58;11.20;99.90
31391;DHT22;18022;45.492;11.548;2024-03-06T06:35:23;11.10;99.90
31391;DHT22;18022;45.492;11.548;2024-03-06T06:37:50;11.20;99.90
31391;DHT22;18022;45.492;11.548;2024-03-06T06:40:16;11.40;99.90
31391;DHT22;18022;45.492;11.548;2024-03-06T06:42:48;11.30;99.90
31391;DHT22;18022;45.492;11.548;2024-03-06T06:45:18;11.30;99.90
31391;DHT22;18022;45.492;11.548;2024-03-06T06:47:44;11.20;99.90
31391;DHT22;18022;45.492;11.548;2024-03-06T06:50:10;11.30;99.90
31391;DHT22;18022;45.492;11.548;2024-03-06T06:52:40;11.50;99.90
31391;DHT22;18022;45.492;11.548;2024-03-06T06:55:06;11.40;99.90
31391;DHT22;18022;45.492;11.548;2024-03-06T06:57:33;11.30;99.90
31391;DHT22;18022;45.492;11.548;2024-03-06T07:00:00;11.30;99.90
31391;DHT22;18022;45.492;11.548;2024-03-06T07:02:25;11.20;99.90
31391;DHT22;18022;45.492;11.548;2024-03-06T07:04:52;11.10;99.90
31391;DHT22;18022;45.492;11.548;2024-03-06T07:07:18;11.10;99.90
31391;DHT22;18022;45.492;11.548;2024-03-06T07:09:44;11.10;99.90
31391;DHT22;18022;45.492;11.548;2024-03-06T07:12:10;11.20;99.90
31391;DHT22;18022;45.492;11.548;2024-03-06T07:14:35;11.20;99.90
31391;DHT22;18022;45.492;11.548;2024-03-06T07:17:01;11.30;99.90
31391;DHT22;18022;45.492;11.548;2024-03-06T07:19:27;11.30;99.90
31391;DHT22;18022;45.492;11.548;2024-03-06T07:21:53;11.30;99.90
31391;DHT22;18022;45.492;11.548;2024-03-06T07:24:19;11.40;99.90
31391;DHT22;18022;45.492;11.548;2024-03-06T07:26:45;11.50;99.90
31391;DHT22;18022;45.492;11.548;2024-03-06T07:29:11;11.50;99.90
31391;DHT22;18022;45.492;11.548;2024-03-06T07:31:43;11.50;99.90
31391;DHT22;18022;45.492;11.548;2024-03-06T07:34:09;11.60;99.90
31391;DHT22;18022;45.492;11.548;2024-03-06T07:36:35;11.60;99.90
31391;DHT22;18022;45.492;11.548;2024-03-06T07:39:02;11.60;99.90
31391;DHT22;18022;45.492;11.548;2024-03-06T07:41:28;11.60;99.90
31391;DHT22;18022;45.492;11.548;2024-03-06T07:43:54;11.60;99.90
31391;DHT22;18022;45.492;11.548;2024-03-06T07:46:20;11.70;99.90
31391;DHT22;18022;45.492;11.548;2024-03-06T07:48:45;11.60;99.90
31391;DHT22;18022;45.492;11.548;2024-03-06T07:51:11;11.70;99.90
31391;DHT22;18022;45.492;11.548;2024-03-06T07:53:37;11.70;99.90
31391;DHT22;18022;45.492;11.548;2024-03-06T07:56:03;11.60;99.90
31391;DHT22;18022;45.492;11.548;2024-03-06T07:58:29;11.70;99.90
31391;DHT22;18022;45.492;11.548;2024-03-06T08:00:55;11.70;99.90
31391;DHT22;18022;45.492;11.548;2024-03-06T08:03:24;11.70;99.90
31391;DHT22;18022;45.492;11.548;2024-03-06T08:05:52;11.70;99.90
31391;DHT22;18022;45.492;11.548;2024-03-06T08:08:18;11.80;99.90
31391;DHT22;18022;45.492;11.548;2024-03-06T08:10:44;11.90;99.90
31391;DHT22;18022;45.492;11.548;2024-03-06T08:13:11;12.00;99.90
31391;DHT22;18022;45.492;11.548;2024-03-06T08:15:36;12.00;99.90
31391;DHT22;18022;45.492;11.548;2024-03-06T08:18:02;12.00;99.90
31391;DHT22;18022;45.492;11.548;2024-03-06T08:20:31;12.10;99.90
31391;DHT22;18022;45.492;11.548;2024-03-06T08:22:58;12.10;99.90
31391;DHT22;18022;45.492;11.548;2024-03-06T08:25:24;12.10;99.90
31391;DHT22;18022;45.492;11.548;2024-03-06T08:27:50;12.10;99.90
31391;DHT22;18022;45.492;11.548;2024-03-06T08:30:16;12.30;99.90
31391;DHT22;18022;45.492;11.548;2024-03-06T08:32:41;12.30;99.90
31391;DHT22;18022;45.492;11.548;2024-03-06T08:35:10;12.20;99.90
31391;DHT22;18022;45.492;11.548;2024-03-06T08:37:37;12.10;99.90
31391;DHT22;18022;45.492;11.548;2024-03-06T08:40:03;12.10;99.90
31391;DHT22;18022;45.492;11.548;2024-03-06T08:42:29;12.10;99.90
31391;DHT22;18022;45.492;11.548;2024-03-06T08:44:55;12.20;99.90
31391;DHT22;18022;45.492;11.548;2024-03-06T08:47:22;12.30;99.90
31391;DHT22;18022;45.492;11.548;2024-03-06T08:49:48;12.30;99.90
31391;DHT22;18022;45.492;11.548;2024-03-06T08:52:13;12.40;99.90
31391;DHT22;18022;45.492;11.548;2024-03-06T08:54:42;12.40;99.90
31391;DHT22;18022;45.492;11.548;2024-03-06T08:57:08;12.40;99.90
31391;DHT22;18022;45.492;11.548;2024-03-06T08:59:36;12.50;99.90
31391;DHT22;18022;45.492;11.548;2024-03-06T09:02:17;12.50;99.90
31391;DHT22;18022;45.492;11.548;2024-03-06T09:04:44;12.40;99.90
31391;DHT22;18022;45.492;11.548;2024-03-06T09:07:10;12.50;99.90
31391;DHT22;18022;45.492;11.548;2024-03-06T09:09:36;12.60;99.90
31391;DHT22;18022;45.492;11.548;2024-03-06T09:12:09;12.70;99.90
31391;DHT22;18022;45.492;11.548;2024-03-06T09:14:37;12.80;99.90
31391;DHT22;18022;45.492;11.548;2024-03-06T09:17:03;13.00;99.90
31391;DHT22;18022;45.492;11.548;2024-03-06T09:19:30;13.20;99.90
31391;DHT22;18022;45.492;11.548;2024-03-06T09:21:56;13.30;99.90
31391;DHT22;18022;45.492;11.548;2024-03-06T09:24:23;13.40;99.90
31391;DHT22;18022;45.492;11.548;2024-03-06T09:26:50;13.20;99.90
31391;DHT22;18022;45.492;11.548;2024-03-06T09:29:16;13.20;99.90
31391;DHT22;18022;45.492;11.548;2024-03-06T09:31:42;13.10;99.90
31391;DHT22;18022;45.492;11.548;2024-03-06T09:34:08;13.10;99.90
31391;DHT22;18022;45.492;11.548;2024-03-06T09:36:41;13.10;99.90
31391;DHT22;18022;45.492;11.548;2024-03-06T09:39:14;13.10;99.90
31391;DHT22;18022;45.492;11.548;2024-03-06T09:41:49;13.20;99.90
31391;DHT22;18022;45.492;11.548;2024-03-06T09:44:18;13.30;99.90
31391;DHT22;18022;45.492;11.548;2024-03-06T09:46:47;13.40;99.90
31391;DHT22;18022;45.492;11.548;2024-03-06T09:49:14;13.40;99.90
31391;DHT22;18022;45.492;11.548;2024-03-06T09:51:45;13.40;99.90
31391;DHT22;18022;45.492;11.548;2024-03-06T09:54:15;13.30;99.90
31391;DHT22;18022;45.492;11.548;2024-03-06T09:56:42;13.40;99.90
31391;DHT22;18022;45.492;11.548;2024-03-06T09:59:09;13.60;99.90
31391;DHT22;18022;45.492;11.548;2024-03-06T10:01:40;13.80;99.90
31391;DHT22;18022;45.492;11.548;2024-03-06T10:04:20;14.20;99.90
31391;DHT22;18022;45.492;11.548;2024-03-06T10:06:46;14.40;99.90
31391;DHT22;18022;45.492;11.548;2024-03-06T10:09:12;14.40;99.90
31391;DHT22;18022;45.492;11.548;2024-03-06T10:11:40;14.20;99.90
31391;DHT22;18022;45.492;11.548;2024-03-06T10:14:08;14.50;99.90
31391;DHT22;18022;45.492;11.548;2024-03-06T10:16:33;14.60;99.90
31391;DHT22;18022;45.492;11.548;2024-03-06T10:19:17;14.70;99.90
31391;DHT22;18022;45.492;11.548;2024-03-06T10:21:46;14.60;99.90
31391;DHT22;18022;45.492;11.548;2024-03-06T10:24:26;14.20;99.90
31391;DHT22;18022;45.492;11.548;2024-03-06T10:26:55;14.50;99.90
31391;DHT22;18022;45.492;11.548;2024-03-06T10:29:22;14.70;99.90
31391;DHT22;18022;45.492;11.548;2024-03-06T10:31:56;14.60;99.90
31391;DHT22;18022;45.492;11.548;2024-03-06T10:34:24;14.40;99.90
31391;DHT22;18022;45.492;11.548;2024-03-06T10:36:58;14.40;99.90
31391;DHT22;18022;45.492;11.548;2024-03-06T10:39:24;14.40;99.90
31391;DHT22;18022;45.492;11.548;2024-03-06T10:41:54;14.10;99.90
31391;DHT22;18022;45.492;11.548;2024-03-06T10:44:22;13.90;99.90
31391;DHT22;18022;45.492;11.548;2024-03-06T10:46:55;13.90;99.90
31391;DHT22;18022;45.492;11.548;2024-03-06T10:49:24;14.30;99.90
31391;DHT22;18022;45.492;11.548;2024-03-06T10:51:51;14.40;99.90
31391;DHT22;18022;45.492;11.548;2024-03-06T10:54:18;14.60;99.90
31391;DHT22;18022;45.492;11.548;2024-03-06T10:56:44;14.40;99.90
31391;DHT22;18022;45.492;11.548;2024-03-06T10:59:11;14.30;99.90
31391;DHT22;18022;45.492;11.548;2024-03-06T11:01:39;14.20;99.90
31391;DHT22;18022;45.492;11.548;2024-03-06T11:04:06;14.10;99.90
31391;DHT22;18022;45.492;11.548;2024-03-06T11:06:32;14.00;99.90
31391;DHT22;18022;45.492;11.548;2024-03-06T11:09:00;14.00;99.90
31391;DHT22;18022;45.492;11.548;2024-03-06T11:11:27;14.10;99.90
31391;DHT22;18022;45.492;11.548;2024-03-06T11:14:00;14.10;99.90
31391;DHT22;18022;45.492;11.548;2024-03-06T11:16:33;13.90;99.90
31391;DHT22;18022;45.492;11.548;2024-03-06T11:19:18;13.90;99.90
31391;DHT22;18022;45.492;11.548;2024-03-06T11:21:47;13.80;99.90
31391;DHT22;18022;45.492;11.548;2024-03-06T11:24:19;13.70;99.90
31391;DHT22;18022;45.492;11.548;2024-03-06T11:26:49;13.60;99.90
31391;DHT22;18022;45.492;11.548;2024-03-06T11:29:16;13.60;99.90
31391;DHT22;18022;45.492;11.548;2024-03-06T11:34:28;13.60;99.90
31391;DHT22;18022;45.492;11.548;2024-03-06T11:36:58;13.60;99.90
31391;DHT22;18022;45.492;11.548;2024-03-06T11:39:27;13.60;99.90
31391;DHT22;18022;45.492;11.548;2024-03-06T11:41:54;13.70;99.90
31391;DHT22;18022;45.492;11.548;2024-03-06T11:44:21;13.60;99.90
31391;DHT22;18022;45.492;11.548;2024-03-06T11:46:59;13.50;99.90
31391;DHT22;18022;45.492;11.548;2024-03-06T11:49:29;13.50;99.90
31391;DHT22;18022;45.492;11.548;2024-03-06T11:52:00;13.60;99.90
31391;DHT22;18022;45.492;11.548;2024-03-06T11:54:26;13.40;99.90
31391;DHT22;18022;45.492;11.548;2024-03-06T11:56:54;13.50;99.90
31391;DHT22;18022;45.492;11.548;2024-03-06T11:59:23;13.60;99.90
31391;DHT22;18022;45.492;11.548;2024-03-06T12:01:53;13.60;99.90
31391;DHT22;18022;45.492;11.548;2024-03-06T12:04:20;13.80;99.90
31391;DHT22;18022;45.492;11.548;2024-03-06T12:06:46;13.90;99.90
31391;DHT22;18022;45.492;11.548;2024-03-06T12:09:12;14.30;99.90
31391;DHT22;18022;45.492;11.548;2024-03-06T12:11:38;14.70;99.90
31391;DHT22;18022;45.492;11.548;2024-03-06T12:14:04;15.10;99.90
31391;DHT22;18022;45.492;11.548;2024-03-06T12:16:30;15.20;99.90
31391;DHT22;18022;45.492;11.548;2024-03-06T12:18:57;15.10;99.90
31391;DHT22;18022;45.492;11.548;2024-03-06T12:21:33;14.80;99.90
31391;DHT22;18022;45.492;11.548;2024-03-06T12:24:06;14.80;99.90
31391;DHT22;18022;45.492;11.548;2024-03-06T12:26:32;14.90;99.90
31391;DHT22;18022;45.492;11.548;2024-03-06T12:29:05;14.90;99.90
31391;DHT22;18022;45.492;11.548;2024-03-06T12:31:31;14.80;99.90
31391;DHT22;18022;45.492;11.548;2024-03-06T12:33:58;14.60;99.90
31391;DHT22;18022;45.492;11.548;2024-03-06T12:36:25;14.70;99.90
31391;DHT22;18022;45.492;11.548;2024-03-06T12:39:02;14.60;99.90
31391;DHT22;18022;45.492;11.548;2024-03-06T12:41:29;14.50;99.90
31391;DHT22;18022;45.492;11.548;2024-03-06T12:43:56;14.40;99.90
31391;DHT22;18022;45.492;11.548;2024-03-06T12:46:23;14.40;99.90
31391;DHT22;18022;45.492;11.548;2024-03-06T12:48:50;14.40;99.90
31391;DHT22;18022;45.492;11.548;2024-03-06T12:51:16;14.50;99.90
31391;DHT22;18022;45.492;11.548;2024-03-06T12:53:42;14.30;99.90
31391;DHT22;18022;45.492;11.548;2024-03-06T12:56:09;14.30;99.90
31391;DHT22;18022;45.492;11.548;2024-03-06T12:58:35;14.20;99.90
31391;DHT22;18022;45.492;11.548;2024-03-06T13:01:01;14.40;99.90
31391;DHT22;18022;45.492;11.548;2024-03-06T13:03:27;14.50;99.90
31391;DHT22;18022;45.492;11.548;2024-03-06T13:05:53;14.40;99.90
31391;DHT22;18022;45.492;11.548;2024-03-06T13:08:19;14.70;99.90
31391;DHT22;18022;45.492;11.548;2024-03-06T13:10:45;14.70;99.90
31391;DHT22;18022;45.492;11.548;2024-03-06T13:13:11;14.60;99.90
31391;DHT22;18022;45.492;11.548;2024-03-06T13:15:36;14.60;99.90
31391;DHT22;18022;45.492;11.548;2024-03-06T13:18:03;14.40;99.90
31391;DHT22;18022;45.492;11.548;2024-03-06T13:20:33;14.40;99.90
31391;DHT22;18022;45.492;11.548;2024-03-06T13:22:59;14.40;99.90
31391;DHT22;18022;45.492;11.548;2024-03-06T13:25:25;14.50;99.90
31391;DHT22;18022;45.492;11.548;2024-03-06T13:27:51;14.30;99.90
31391;DHT22;18022;45.492;11.548;2024-03-06T13:30:20;14.40;99.90
31391;DHT22;18022;45.492;11.548;2024-03-06T13:32:46;14.50;99.90
31391;DHT22;18022;45.492;11.548;2024-03-06T13:35:15;14.70;99.90
31391;DHT22;18022;45.492;11.548;2024-03-06T13:37:44;14.90;99.90
31391;DHT22;18022;45.492;11.548;2024-03-06T13:40:11;14.90;99.90
31391;DHT22;18022;45.492;11.548;2024-03-06T13:42:39;14.70;99.90
31391;DHT22;18022;45.492;11.548;2024-03-06T13:45:06;14.70;99.90
31391;DHT22;18022;45.492;11.548;2024-03-06T13:47:38;15.00;99.90
31391;DHT22;18022;45.492;11.548;2024-03-06T13:50:10;15.00;99.90
31391;DHT22;18022;45.492;11.548;2024-03-06T13:52:37;15.20;99.90
31391;DHT22;18022;45.492;11.548;2024-03-06T13:55:03;15.10;99.90
31391;DHT22;18022;45.492;11.548;2024-03-06T13:57:36;15.10;99.90
31391;DHT22;18022;45.492;11.548;2024-03-06T14:00:11;15.10;99.90
31391;DHT22;18022;45.492;11.548;2024-03-06T14:02:44;15.20;99.90
31391;DHT22;18022;45.492;11.548;2024-03-06T14:05:11;15.40;99.90
31391;DHT22;18022;45.492;11.548;2024-03-06T14:07:38;15.60;99.90
31391;DHT22;18022;45.492;11.548;2024-03-06T14:10:05;15.50;99.90
31391;DHT22;18022;45.492;11.548;2024-03-06T14:12:32;15.30;99.90
31391;DHT22;18022;45.492;11.548;2024-03-06T14:14:58;15.10;99.90
31391;DHT22;18022;45.492;11.548;2024-03-06T14:17:24;15.00;99.90
31391;DHT22;18022;45.492;11.548;2024-03-06T14:19:49;15.00;99.90
31391;DHT22;18022;45.492;11.548;2024-03-06T14:22:15;15.10;99.90
31391;DHT22;18022;45.492;11.548;2024-03-06T14:24:42;14.90;99.90
31391;DHT22;18022;45.492;11.548;2024-03-06T14:27:07;14.70;99.90
31391;DHT22;18022;45.492;11.548;2024-03-06T14:29:33;14.60;99.90
31391;DHT22;18022;45.492;11.548;2024-03-06T14:31:59;14.40;99.90
31391;DHT22;18022;45.492;11.548;2024-03-06T14:34:25;14.50;99.90
31391;DHT22;18022;45.492;11.548;2024-03-06T14:36:51;14.50;99.90
31391;DHT22;18022;45.492;11.548;2024-03-06T14:39:17;14.40;99.90
31391;DHT22;18022;45.492;11.548;2024-03-06T14:41:43;14.30;99.90
31391;DHT22;18022;45.492;11.548;2024-03-06T14:44:10;14.30;99.90
31391;DHT22;18022;45.492;11.548;2024-03-06T14:46:36;14.20;99.90
31391;DHT22;18022;45.492;11.548;2024-03-06T14:49:02;14.30;99.90
31391;DHT22;18022;45.492;11.548;2024-03-06T14:51:28;14.40;99.90
31391;DHT22;18022;45.492;11.548;2024-03-06T14:53:55;14.50;99.90
31391;DHT22;18022;45.492;11.548;2024-03-06T14:56:21;14.50;99.90
31391;DHT22;18022;45.492;11.548;2024-03-06T14:58:47;14.40;99.90
31391;DHT22;18022;45.492;11.548;2024-03-06T15:01:13;14.50;99.90
31391;DHT22;18022;45.492;11.548;2024-03-06T15:03:39;14.70;99.90
31391;DHT22;18022;45.492;11.548;2024-03-06T15:06:05;14.70;99.90
31391;DHT22;18022;45.492;11.548;2024-03-06T15:08:33;14.70;99.90
31391;DHT22;18022;45.492;11.548;2024-03-06T15:11:00;14.70;99.90
31391;DHT22;18022;45.492;11.548;2024-03-06T15:13:25;14.80;99.90
31391;DHT22;18022;45.492;11.548;2024-03-06T15:15:51;14.80;99.90
31391;DHT22;18022;45.492;11.548;2024-03-06T15:18:17;14.90;99.90